sensor_id;sensor_type;location;lat;lon;timestamp;temperature;humidity
21906;DHT22;11117;48.644;9.006;2022-08-19T00:00:52;19.60;99.90
21906;DHT22;11117;48.644;9.006;2022-08-19T00:03:17;19.50;99.90
21906;DHT22;11117;48.644;9.006;2022-08-19T00:05:43;19.50;99.90
21906;DHT22;11117;48.644;9.006;2022-08-19T00:08:08;19.50;99.90
21906;DHT22;11117;48.644;9.006;2022-08-19T00:10:34;19.40;99.90
21906;DHT22;11117;48.644;9.006;2022-08-19T00:13:00;19.40;99.90
21906;DHT22;11117;48.644;9.006;2022-08-19T00:15:25;19.40;99.90
21906;DHT22;11117;48.644;9.006;2022-08-19T00:17:51;19.50;99.90
21906;DHT22;11117;48.644;9.006;2022-08-19T00:20:20;19.50;99.90
21906;DHT22;11117;48.644;9.006;2022-08-19T00:22:46;19.50;99.90
21906;DHT22;11117;48.644;9.006;2022-08-19T00:25:12;19.50;99.90
21906;DHT22;11117;48.644;9.006;2022-08-19T00:27:38;19.40;99.90
21906;DHT22;11117;48.644;9.006;2022-08-19T00:30:06;19.40;99.90
21906;DHT22;11117;48.644;9.006;2022-08-19T00:32:32;19.40;99.90
21906;DHT22;11117;48.644;9.006;2022-08-19T00:34:57;19.40;99.90
21906;DHT22;11117;48.644;9.006;2022-08-19T00:37:23;19.30;99.90
21906;DHT22;11117;48.644;9.006;2022-08-19T00:39:50;19.30;99.90
21906;DHT22;11117;48.644;9.006;2022-08-19T00:42:15;19.20;99.90
21906;DHT22;11117;48.644;9.006;2022-08-19T00:44:41;19.30;99.90
21906;DHT22;11117;48.644;9.006;2022-08-19T00:47:07;19.20;99.90
21906;DHT22;11117;48.644;9.006;2022-08-19T00:49:40;19.30;99.90
21906;DHT22;11117;48.644;9.006;2022-08-19T00:52:11;19.20;99.90
21906;DHT22;11117;48.644;9.006;2022-08-19T00:54:38;19.30;99.90
21906;DHT22;11117;48.644;9.006;2022-08-19T00:57:07;19.30;99.90
21906;DHT22;11117;48.644;9.006;2022-08-19T00:59:38;19.20;99.90
21906;DHT22;11117;48.644;9.006;2022-08-19T01:02:05;19.20;99.90
21906;DHT22;11117;48.644;9.006;2022-08-19T01:04:31;19.20;99.90
21906;DHT22;11117;48.644;9.006;2022-08-19T01:06:58;19.10;99.90
21906;DHT22;11117;48.644;9.006;2022-08-19T01:09:24;19.10;99.90
21906;DHT22;11117;48.644;9.006;2022-08-19T01:11:51;19.10;99.90
21906;DHT22;11117;48.644;9.006;2022-08-19T01:14:17;19.10;99.90
21906;DHT22;11117;48.644;9.006;2022-08-19T01:16:45;19.10;99.90
21906;DHT22;11117;48.644;9.006;2022-08-19T01:19:18;19.00;99.90
21906;DHT22;11117;48.644;9.006;2022-08-19T01:21:54;19.00;99.90
21906;DHT22;11117;48.644;9.006;2022-08-19T01:24:20;18.90;99.90
21906;DHT22;11117;48.644;9.006;2022-08-19T01:26:47;18.90;99.90
21906;DHT22;11117;48.644;9.006;2022-08-19T01:29:13;18.90;99.90
21906;DHT22;11117;48.644;9.006;2022-08-19T01:31:38;18.90;99.90
21906;DHT22;11117;48.644;9.006;2022-08-19T01:34:04;18.90;99.90
21906;DHT22;11117;48.644;9.006;2022-08-19T01:36:32;18.90;99.90
21906;DHT22;11117;48.644;9.006;2022-08-19T01:38:59;18.80;99.90
21906;DHT22;11117;48.644;9.006;2022-08-19T01:41:25;18.80;99.90
21906;DHT22;11117;48.644;9.006;2022-08-19T01:43:52;18.80;99.90
21906;DHT22;11117;48.644;9.006;2022-08-19T01:46:18;18.70;99.90
21906;DHT22;11117;48.644;9.006;2022-08-19T01:48:44;18.70;99.90
21906;DHT22;11117;48.644;9.006;2022-08-19T01:51:11;18.70;99.90
21906;DHT22;11117;48.644;9.006;2022-08-19T01:53:37;18.70;99.90
21906;DHT22;11117;48.644;9.006;2022-08-19T01:56:03;18.70;99.90
21906;DHT22;11117;48.644;9.006;2022-08-19T01:58:33;18.70;99.90
21906;DHT22;11117;48.644;9.006;2022-08-19T02:01:00;18.60;99.90
21906;DHT22;11117;48.644;9.006;2022-08-19T02:03:25;18.70;99.90
21906;DHT22;11117;48.644;9.006;2022-08-19T02:05:59;18.70;99.90
21906;DHT22;11117;48.644;9.006;2022-08-19T02:08:30;18.70;99.90
21906;DHT22;11117;48.644;9.006;2022-08-19T02:10:56;18.70;99.90
21906;DHT22;11117;48.644;9.006;2022-08-19T02:13:23;18.70;99.90
21906;DHT22;11117;48.644;9.006;2022-08-19T02:15:48;18.70;99.90
21906;DHT22;11117;48.644;9.006;2022-08-19T02:18:17;18.70;99.90
21906;DHT22;11117;48.644;9.006;2022-08-19T02:20:44;18.70;99.90
21906;DHT22;11117;48.644;9.006;2022-08-19T02:23:11;18.60;99.90
21906;DHT22;11117;48.644;9.006;2022-08-19T02:25:37;18.50;99.90
21906;DHT22;11117;48.644;9.006;2022-08-19T02:28:06;18.60;99.90
21906;DHT22;11117;48.644;9.006;2022-08-19T02:30:32;18.60;99.90
21906;DHT22;11117;48.644;9.006;2022-08-19T02:33:01;18.60;99.90
21906;DHT22;11117;48.644;9.006;2022-08-19T02:35:27;18.60;99.90
21906;DHT22;11117;48.644;9.006;2022-08-19T02:37:52;18.50;99.90
21906;DHT22;11117;48.644;9.006;2022-08-19T02:40:18;18.50;99.90
21906;DHT22;11117;48.644;9.006;2022-08-19T02:42:44;18.50;99.90
21906;DHT22;11117;48.644;9.006;2022-08-19T02:45:11;18.40;99.90
21906;DHT22;11117;48.644;9.006;2022-08-19T02:47:37;18.40;99.90
21906;DHT22;11117;48.644;9.006;2022-08-19T02:50:03;18.40;99.90
21906;DHT22;11117;48.644;9.006;2022-08-19T02:52:30;18.50;99.90
21906;DHT22;11117;48.644;9.006;2022-08-19T02:54:56;18.40;99.90
21906;DHT22;11117;48.644;9.006;2022-08-19T02:57:22;18.40;99.90
21906;DHT22;11117;48.644;9.006;2022-08-19T02:59:47;18.40;99.90
21906;DHT22;11117;48.644;9.006;2022-08-19T03:02:13;18.40;99.90
21906;DHT22;11117;48.644;9.006;2022-08-19T03:04:38;18.40;99.90
21906;DHT22;11117;48.644;9.006;2022-08-19T03:07:04;18.50;99.90
21906;DHT22;11117;48.644;9.006;2022-08-19T03:09:29;18.40;99.90
21906;DHT22;11117;48.644;9.006;2022-08-19T03:11:55;18.40;99.90
21906;DHT22;11117;48.644;9.006;2022-08-19T03:14:21;18.30;99.90
21906;DHT22;11117;48.644;9.006;2022-08-19T03:16:48;18.30;99.90
21906;DHT22;11117;48.644;9.006;2022-08-19T03:19:17;18.30;99.90
21906;DHT22;11117;48.644;9.006;2022-08-19T03:21:44;18.30;99.90
21906;DHT22;11117;48.644;9.006;2022-08-19T03:24:10;18.20;99.90
21906;DHT22;11117;48.644;9.006;2022-08-19T03:26:44;18.30;99.90
21906;DHT22;11117;48.644;9.006;2022-08-19T03:29:10;18.20;99.90
21906;DHT22;11117;48.644;9.006;2022-08-19T03:31:36;18.20;99.90
21906;DHT22;11117;48.644;9.006;2022-08-19T03:34:02;18.20;99.90
21906;DHT22;11117;48.644;9.006;2022-08-19T03:36:28;18.10;99.90
21906;DHT22;11117;48.644;9.006;2022-08-19T03:38:58;18.20;99.90
21906;DHT22;11117;48.644;9.006;2022-08-19T03:41:27;18.10;99.90
21906;DHT22;11117;48.644;9.006;2022-08-19T03:43:53;18.10;99.90
21906;DHT22;11117;48.644;9.006;2022-08-19T03:46:22;18.20;99.90
21906;DHT22;11117;48.644;9.006;2022-08-19T03:48:50;18.10;99.90
21906;DHT22;11117;48.644;9.006;2022-08-19T03:51:22;18.10;99.90
21906;DHT22;11117;48.644;9.006;2022-08-19T03:53:47;18.10;99.90
21906;DHT22;11117;48.644;9.006;2022-08-19T03:56:13;18.20;99.90
21906;DHT22;11117;48.644;9.006;2022-08-19T03:58:40;18.10;99.90
21906;DHT22;11117;48.644;9.006;2022-08-19T04:01:14;18.10;99.90
21906;DHT22;11117;48.644;9.006;2022-08-19T04:03:42;18.10;99.90
21906;DHT22;11117;48.644;9.006;2022-08-19T04:06:11;18.10;99.90
21906;DHT22;11117;48.644;9.006;2022-08-19T04:08:38;18.10;99.90
21906;DHT22;11117;48.644;9.006;2022-08-19T04:11:07;18.10;99.90
21906;DHT22;11117;48.644;9.006;2022-08-19T04:13:33;18.10;99.90
21906;DHT22;11117;48.644;9.006;2022-08-19T04:15:59;18.10;99.90
21906;DHT22;11117;48.644;9.006;2022-08-19T04:18:25;18.10;99.90
21906;DHT22;11117;48.644;9.006;2022-08-19T04:20:51;18.10;99.90
21906;DHT22;11117;48.644;9.006;2022-08-19T04:23:17;18.10;99.90
21906;DHT22;11117;48.644;9.006;2022-08-19T04:25:44;18.10;99.90
21906;DHT22;11117;48.644;9.006;2022-08-19T04:28:11;18.10;99.90
21906;DHT22;11117;48.644;9.006;2022-08-19T04:30:42;18.00;99.90
21906;DHT22;11117;48.644;9.006;2022-08-19T04:33:09;18.00;99.90
21906;DHT22;11117;48.644;9.006;2022-08-19T04:35:41;18.00;99.90
21906;DHT22;11117;48.644;9.006;2022-08-19T04:38:08;18.00;99.90
21906;DHT22;11117;48.644;9.006;2022-08-19T04:40:40;18.00;99.90
21906;DHT22;11117;48.644;9.006;2022-08-19T04:43:06;18.00;99.90
21906;DHT22;11117;48.644;9.006;2022-08-19T04:45:31;18.00;99.90
21906;DHT22;11117;48.644;9.006;2022-08-19T04:47:57;18.10;99.90
21906;DHT22;11117;48.644;9.006;2022-08-19T04:50:22;18.10;99.90
21906;DHT22;11117;48.644;9.006;2022-08-19T04:52:50;18.10;99.90
21906;DHT22;11117;48.644;9.006;2022-08-19T04:55:16;18.00;99.90
21906;DHT22;11117;48.644;9.006;2022-08-19T04:57:42;18.00;99.90
21906;DHT22;11117;48.644;9.006;2022-08-19T05:00:10;18.10;99.90
21906;DHT22;11117;48.644;9.006;2022-08-19T05:02:37;18.10;99.90
21906;DHT22;11117;48.644;9.006;2022-08-19T05:05:03;18.10;99.90
21906;DHT22;11117;48.644;9.006;2022-08-19T05:07:29;18.10;99.90
21906;DHT22;11117;48.644;9.006;2022-08-19T05:09:54;18.00;99.90
21906;DHT22;11117;48.644;9.006;2022-08-19T05:12:20;18.10;99.90
21906;DHT22;11117;48.644;9.006;2022-08-19T05:14:46;18.10;99.90
21906;DHT22;11117;48.644;9.006;2022-08-19T05:17:11;18.10;99.90
21906;DHT22;11117;48.644;9.006;2022-08-19T05:19:37;18.10;99.90
21906;DHT22;11117;48.644;9.006;2022-08-19T05:22:02;18.20;99.90
21906;DHT22;11117;48.644;9.006;2022-08-19T05:24:29;18.10;99.90
21906;DHT22;11117;48.644;9.006;2022-08-19T05:26:55;18.20;99.90
21906;DHT22;11117;48.644;9.006;2022-08-19T05:29:21;18.20;99.90
21906;DHT22;11117;48.644;9.006;2022-08-19T05:31:48;18.20;99.90
21906;DHT22;11117;48.644;9.006;2022-08-19T05:34:14;18.20;99.90
21906;DHT22;11117;48.644;9.006;2022-08-19T05:36:43;18.30;99.90
21906;DHT22;11117;48.644;9.006;2022-08-19T05:39:11;18.30;99.90
21906;DHT22;11117;48.644;9.006;2022-08-19T05:41:44;18.30;99.90
21906;DHT22;11117;48.644;9.006;2022-08-19T05:44:10;18.30;99.90
21906;DHT22;11117;48.644;9.006;2022-08-19T05:46:38;18.30;99.90
21906;DHT22;11117;48.644;9.006;2022-08-19T05:49:05;18.30;99.90
21906;DHT22;11117;48.644;9.006;2022-08-19T05:51:31;18.30;99.90
21906;DHT22;11117;48.644;9.006;2022-08-19T05:53:57;18.40;99.90
21906;DHT22;11117;48.644;9.006;2022-08-19T05:56:22;18.40;99.90
21906;DHT22;11117;48.644;9.006;2022-08-19T05:58:48;18.30;99.90
21906;DHT22;11117;48.644;9.006;2022-08-19T06:01:16;18.40;99.90
21906;DHT22;11117;48.644;9.006;2022-08-19T06:03:43;18.30;99.90
21906;DHT22;11117;48.644;9.006;2022-08-19T06:06:11;18.40;99.90
21906;DHT22;11117;48.644;9.006;2022-08-19T06:08:37;18.40;99.90
21906;DHT22;11117;48.644;9.006;2022-08-19T06:11:39;18.40;99.90
21906;DHT22;11117;48.644;9.006;2022-08-19T06:14:13;18.40;99.90
21906;DHT22;11117;48.644;9.006;2022-08-19T06:16:40;18.40;99.90
21906;DHT22;11117;48.644;9.006;2022-08-19T06:19:09;18.40;99.90
21906;DHT22;11117;48.644;9.006;2022-08-19T06:21:37;18.30;99.90
21906;DHT22;11117;48.644;9.006;2022-08-19T06:24:09;18.30;99.90
21906;DHT22;11117;48.644;9.006;2022-08-19T06:26:38;18.30;99.90
21906;DHT22;11117;48.644;9.006;2022-08-19T06:29:06;18.40;99.90
21906;DHT22;11117;48.644;9.006;2022-08-19T06:31:33;18.50;99.90
21906;DHT22;11117;48.644;9.006;2022-08-19T06:34:00;18.50;99.90
21906;DHT22;11117;48.644;9.006;2022-08-19T06:36:35;18.50;99.90
21906;DHT22;11117;48.644;9.006;2022-08-19T06:39:04;18.50;99.90
21906;DHT22;11117;48.644;9.006;2022-08-19T06:41:30;18.60;99.90
21906;DHT22;11117;48.644;9.006;2022-08-19T06:43:57;18.70;99.90
21906;DHT22;11117;48.644;9.006;2022-08-19T06:46:22;18.60;99.90
21906;DHT22;11117;48.644;9.006;2022-08-19T06:48:49;18.60;99.90
21906;DHT22;11117;48.644;9.006;2022-08-19T06:51:16;18.60;99.90
21906;DHT22;11117;48.644;9.006;2022-08-19T06:53:42;18.70;99.90
21906;DHT22;11117;48.644;9.006;2022-08-19T06:56:08;18.80;99.90
21906;DHT22;11117;48.644;9.006;2022-08-19T06:58:33;18.90;99.90
21906;DHT22;11117;48.644;9.006;2022-08-19T07:01:01;18.80;99.90
21906;DHT22;11117;48.644;9.006;2022-08-19T07:03:32;18.90;99.90
21906;DHT22;11117;48.644;9.006;2022-08-19T07:06:06;18.90;99.90
21906;DHT22;11117;48.644;9.006;2022-08-19T07:08:32;19.00;99.90
21906;DHT22;11117;48.644;9.006;2022-08-19T07:10:58;19.10;99.90
21906;DHT22;11117;48.644;9.006;2022-08-19T07:13:24;19.10;99.90
21906;DHT22;11117;48.644;9.006;2022-08-19T07:15:49;19.10;99.90
21906;DHT22;11117;48.644;9.006;2022-08-19T07:18:16;19.10;99.90
21906;DHT22;11117;48.644;9.006;2022-08-19T07:20:42;19.10;99.90
21906;DHT22;11117;48.644;9.006;2022-08-19T07:23:08;19.30;99.90
21906;DHT22;11117;48.644;9.006;2022-08-19T07:25:33;19.40;99.90
21906;DHT22;11117;48.644;9.006;2022-08-19T07:28:00;19.40;99.90
21906;DHT22;11117;48.644;9.006;2022-08-19T07:30:26;19.50;99.90
21906;DHT22;11117;48.644;9.006;2022-08-19T07:32:52;19.70;99.90
21906;DHT22;11117;48.644;9.006;2022-08-19T07:35:17;19.80;99.90
21906;DHT22;11117;48.644;9.006;2022-08-19T07:37:43;19.90;99.90
21906;DHT22;11117;48.644;9.006;2022-08-19T07:40:09;19.90;99.90
21906;DHT22;11117;48.644;9.006;2022-08-19T07:42:34;19.80;99.90
21906;DHT22;11117;48.644;9.006;2022-08-19T07:45:00;19.60;99.90
21906;DHT22;11117;48.644;9.006;2022-08-19T07:47:26;19.50;99.90
21906;DHT22;11117;48.644;9.006;2022-08-19T07:49:51;19.40;99.90
21906;DHT22;11117;48.644;9.006;2022-08-19T07:52:17;19.40;99.90
21906;DHT22;11117;48.644;9.006;2022-08-19T07:54:42;19.30;99.90
21906;DHT22;11117;48.644;9.006;2022-08-19T07:57:08;19.40;99.90
21906;DHT22;11117;48.644;9.006;2022-08-19T07:59:34;19.40;99.90
21906;DHT22;11117;48.644;9.006;2022-08-19T08:02:00;19.50;99.90
21906;DHT22;11117;48.644;9.006;2022-08-19T08:04:28;19.60;99.90
21906;DHT22;11117;48.644;9.006;2022-08-19T08:06:54;19.50;99.90
21906;DHT22;11117;48.644;9.006;2022-08-19T08:09:24;19.40;99.90
21906;DHT22;11117;48.644;9.006;2022-08-19T08:11:53;19.30;99.90
21906;DHT22;11117;48.644;9.006;2022-08-19T08:15:06;19.30;99.90
21906;DHT22;11117;48.644;9.006;2022-08-19T08:17:11;19.20;99.90
21906;DHT22;11117;48.644;9.006;2022-08-19T08:19:37;19.10;99.90
21906;DHT22;11117;48.644;9.006;2022-08-19T08:22:03;19.10;99.90
21906;DHT22;11117;48.644;9.006;2022-08-19T08:24:30;19.10;99.90
21906;DHT22;11117;48.644;9.006;2022-08-19T08:26:57;19.00;99.90
21906;DHT22;11117;48.644;9.006;2022-08-19T08:29:22;19.00;99.90
21906;DHT22;11117;48.644;9.006;2022-08-19T08:31:48;19.00;99.90
21906;DHT22;11117;48.644;9.006;2022-08-19T08:34:15;19.00;99.90
21906;DHT22;11117;48.644;9.006;2022-08-19T08:36:44;19.10;99.90
21906;DHT22;11117;48.644;9.006;2022-08-19T08:39:21;19.10;99.90
21906;DHT22;11117;48.644;9.006;2022-08-19T08:42:07;18.90;99.90
21906;DHT22;11117;48.644;9.006;2022-08-19T08:45:05;18.90;99.90
21906;DHT22;11117;48.644;9.006;2022-08-19T08:47:35;19.00;99.90
21906;DHT22;11117;48.644;9.006;2022-08-19T08:50:25;19.00;99.90
21906;DHT22;11117;48.644;9.006;2022-08-19T08:52:56;19.00;99.90
21906;DHT22;11117;48.644;9.006;2022-08-19T08:55:26;19.00;99.90
21906;DHT22;11117;48.644;9.006;2022-08-19T08:58:02;19.00;99.90
21906;DHT22;11117;48.644;9.006;2022-08-19T09:00:37;18.90;99.90
21906;DHT22;11117;48.644;9.006;2022-08-19T09:03:20;19.00;99.90
21906;DHT22;11117;48.644;9.006;2022-08-19T09:11:03;19.30;99.90
21906;DHT22;11117;48.644;9.006;2022-08-19T09:14:02;19.40;99.90
21906;DHT22;11117;48.644;9.006;2022-08-19T09:16:31;19.40;99.90
21906;DHT22;11117;48.644;9.006;2022-08-19T09:19:02;19.60;99.90
21906;DHT22;11117;48.644;9.006;2022-08-19T09:21:29;19.50;99.90
21906;DHT22;11117;48.644;9.006;2022-08-19T09:23:55;19.60;99.90
21906;DHT22;11117;48.644;9.006;2022-08-19T09:26:22;19.60;99.90
21906;DHT22;11117;48.644;9.006;2022-08-19T09:28:49;19.70;99.90
21906;DHT22;11117;48.644;9.006;2022-08-19T09:31:19;19.90;99.90
21906;DHT22;11117;48.644;9.006;2022-08-19T09:33:46;20.00;99.90
21906;DHT22;11117;48.644;9.006;2022-08-19T09:36:15;20.00;99.90
21906;DHT22;11117;48.644;9.006;2022-08-19T09:38:41;19.90;99.90
21906;DHT22;11117;48.644;9.006;2022-08-19T09:41:13;20.00;99.90
21906;DHT22;11117;48.644;9.006;2022-08-19T09:43:40;20.00;99.90
21906;DHT22;11117;48.644;9.006;2022-08-19T09:46:07;19.90;99.90
21906;DHT22;11117;48.644;9.006;2022-08-19T09:48:33;19.90;99.90
21906;DHT22;11117;48.644;9.006;2022-08-19T09:51:07;20.00;99.90
21906;DHT22;11117;48.644;9.006;2022-08-19T09:53:36;20.10;99.90
21906;DHT22;11117;48.644;9.006;2022-08-19T09:56:03;20.00;99.90
21906;DHT22;11117;48.644;9.006;2022-08-19T09:58:29;20.10;99.90
21906;DHT22;11117;48.644;9.006;2022-08-19T10:00:56;20.00;99.90
21906;DHT22;11117;48.644;9.006;2022-08-19T10:03:21;20.20;99.90
21906;DHT22;11117;48.644;9.006;2022-08-19T10:05:47;20.10;99.90
21906;DHT22;11117;48.644;9.006;2022-08-19T10:08:13;20.10;99.90
21906;DHT22;11117;48.644;9.006;2022-08-19T10:10:43;20.20;99.90
21906;DHT22;11117;48.644;9.006;2022-08-19T10:13:09;20.20;99.90
21906;DHT22;11117;48.644;9.006;2022-08-19T10:15:35;20.20;99.90
21906;DHT22;11117;48.644;9.006;2022-08-19T10:18:01;20.20;99.90
21906;DHT22;11117;48.644;9.006;2022-08-19T10:20:27;20.10;99.90
21906;DHT22;11117;48.644;9.006;2022-08-19T10:22:52;20.20;99.90
21906;DHT22;11117;48.644;9.006;2022-08-19T10:25:18;20.20;99.90
21906;DHT22;11117;48.644;9.006;2022-08-19T10:27:43;20.20;99.90
21906;DHT22;11117;48.644;9.006;2022-08-19T10:30:09;20.20;99.90
21906;DHT22;11117;48.644;9.006;2022-08-19T10:32:35;20.20;99.90
21906;DHT22;11117;48.644;9.006;2022-08-19T10:35:02;20.20;99.90
21906;DHT22;11117;48.644;9.006;2022-08-19T10:37:28;20.30;99.90
21906;DHT22;11117;48.644;9.006;2022-08-19T10:39:53;20.30;99.90
21906;DHT22;11117;48.644;9.006;2022-08-19T10:42:19;20.40;99.90
21906;DHT22;11117;48.644;9.006;2022-08-19T10:44:45;20.40;99.90
21906;DHT22;11117;48.644;9.006;2022-08-19T10:47:12;20.60;99.90
21906;DHT22;11117;48.644;9.006;2022-08-19T10:49:38;20.70;99.90
21906;DHT22;11117;48.644;9.006;2022-08-19T10:52:04;20.70;99.90
21906;DHT22;11117;48.644;9.006;2022-08-19T10:54:29;20.80;99.90
21906;DHT22;11117;48.644;9.006;2022-08-19T10:56:55;20.90;99.90
21906;DHT22;11117;48.644;9.006;2022-08-19T10:59:29;21.00;99.90
21906;DHT22;11117;48.644;9.006;2022-08-19T11:02:04;21.00;99.90
21906;DHT22;11117;48.644;9.006;2022-08-19T11:04:29;20.90;99.90
21906;DHT22;11117;48.644;9.006;2022-08-19T11:06:55;21.10;99.90
21906;DHT22;11117;48.644;9.006;2022-08-19T11:09:22;21.20;99.90
21906;DHT22;11117;48.644;9.006;2022-08-19T11:11:48;21.30;99.90
21906;DHT22;11117;48.644;9.006;2022-08-19T11:14:16;21.40;99.90
21906;DHT22;11117;48.644;9.006;2022-08-19T11:16:42;21.60;99.90
21906;DHT22;11117;48.644;9.006;2022-08-19T11:19:10;21.70;99.90
21906;DHT22;11117;48.644;9.006;2022-08-19T11:21:41;21.90;99.90
21906;DHT22;11117;48.644;9.006;2022-08-19T11:24:10;21.80;99.90
21906;DHT22;11117;48.644;9.006;2022-08-19T11:26:36;21.90;99.90
21906;DHT22;11117;48.644;9.006;2022-08-19T11:29:04;21.90;99.90
21906;DHT22;11117;48.644;9.006;2022-08-19T11:31:31;21.80;99.90
21906;DHT22;11117;48.644;9.006;2022-08-19T11:33:59;21.80;99.90
21906;DHT22;11117;48.644;9.006;2022-08-19T11:36:25;21.80;99.90
21906;DHT22;11117;48.644;9.006;2022-08-19T11:38:51;21.80;99.90
21906;DHT22;11117;48.644;9.006;2022-08-19T11:41:20;21.80;99.90
21906;DHT22;11117;48.644;9.006;2022-08-19T11:43:46;21.70;99.90
21906;DHT22;11117;48.644;9.006;2022-08-19T11:46:13;21.70;99.90
21906;DHT22;11117;48.644;9.006;2022-08-19T11:48:40;21.60;99.90
21906;DHT22;11117;48.644;9.006;2022-08-19T11:51:12;21.60;99.90
21906;DHT22;11117;48.644;9.006;2022-08-19T11:53:38;21.60;99.90
21906;DHT22;11117;48.644;9.006;2022-08-19T11:56:05;21.60;99.90
21906;DHT22;11117;48.644;9.006;2022-08-19T11:58:31;21.50;99.90
21906;DHT22;11117;48.644;9.006;2022-08-19T12:00:57;21.60;99.90
21906;DHT22;11117;48.644;9.006;2022-08-19T12:03:23;21.70;99.90
21906;DHT22;11117;48.644;9.006;2022-08-19T12:05:50;21.70;99.90
21906;DHT22;11117;48.644;9.006;2022-08-19T12:08:16;21.70;99.90
21906;DHT22;11117;48.644;9.006;2022-08-19T12:10:42;21.60;99.90
21906;DHT22;11117;48.644;9.006;2022-08-19T12:13:09;21.60;99.90
21906;DHT22;11117;48.644;9.006;2022-08-19T12:15:39;21.70;99.90
21906;DHT22;11117;48.644;9.006;2022-08-19T12:18:04;21.70;99.90
21906;DHT22;11117;48.644;9.006;2022-08-19T12:20:30;21.70;99.90
21906;DHT22;11117;48.644;9.006;2022-08-19T12:22:56;21.90;99.90
21906;DHT22;11117;48.644;9.006;2022-08-19T12:25:21;21.90;99.90
21906;DHT22;11117;48.644;9.006;2022-08-19T12:27:47;21.90;99.90
21906;DHT22;11117;48.644;9.006;2022-08-19T12:30:13;22.10;99.90
21906;DHT22;11117;48.644;9.006;2022-08-19T12:32:39;22.30;99.90
21906;DHT22;11117;48.644;9.006;2022-08-19T12:35:07;22.60;99.90
21906;DHT22;11117;48.644;9.006;2022-08-19T12:37:32;22.80;99.90
21906;DHT22;11117;48.644;9.006;2022-08-19T12:39:58;22.80;99.90
21906;DHT22;11117;48.644;9.006;2022-08-19T12:42:24;23.10;99.90
21906;DHT22;11117;48.644;9.006;2022-08-19T12:44:51;23.20;99.60
21906;DHT22;11117;48.644;9.006;2022-08-19T12:47:16;23.10;98.90
21906;DHT22;11117;48.644;9.006;2022-08-19T12:49:42;23.20;99.20
21906;DHT22;11117;48.644;9.006;2022-08-19T12:52:08;23.00;98.40
21906;DHT22;11117;48.644;9.006;2022-08-19T12:54:35;23.00;98.90
21906;DHT22;11117;48.644;9.006;2022-08-19T12:57:04;23.10;97.80
21906;DHT22;11117;48.644;9.006;2022-08-19T12:59:30;23.10;97.40
21906;DHT22;11117;48.644;9.006;2022-08-19T13:01:55;23.20;97.40
21906;DHT22;11117;48.644;9.006;2022-08-19T13:04:24;23.20;96.00
21906;DHT22;11117;48.644;9.006;2022-08-19T13:06:50;23.30;95.60
21906;DHT22;11117;48.644;9.006;2022-08-19T13:09:15;23.10;94.00
21906;DHT22;11117;48.644;9.006;2022-08-19T13:11:41;23.10;94.00
21906;DHT22;11117;48.644;9.006;2022-08-19T13:14:06;23.10;93.70
21906;DHT22;11117;48.644;9.006;2022-08-19T13:16:32;23.20;93.80
21906;DHT22;11117;48.644;9.006;2022-08-19T13:18:57;23.20;93.70
21906;DHT22;11117;48.644;9.006;2022-08-19T13:21:26;23.30;93.90
21906;DHT22;11117;48.644;9.006;2022-08-19T13:23:57;23.40;93.30
21906;DHT22;11117;48.644;9.006;2022-08-19T13:26:23;23.60;92.80
21906;DHT22;11117;48.644;9.006;2022-08-19T13:28:49;23.60;92.00
21906;DHT22;11117;48.644;9.006;2022-08-19T13:31:16;23.70;91.80
21906;DHT22;11117;48.644;9.006;2022-08-19T13:33:42;23.60;91.90
21906;DHT22;11117;48.644;9.006;2022-08-19T13:36:08;23.80;92.00
21906;DHT22;11117;48.644;9.006;2022-08-19T13:38:36;23.80;91.90
21906;DHT22;11117;48.644;9.006;2022-08-19T13:41:08;23.70;91.50
21906;DHT22;11117;48.644;9.006;2022-08-19T13:43:33;23.80;91.80
21906;DHT22;11117;48.644;9.006;2022-08-19T13:46:09;23.80;92.10
21906;DHT22;11117;48.644;9.006;2022-08-19T13:48:35;23.90;92.40
21906;DHT22;11117;48.644;9.006;2022-08-19T13:51:00;23.70;92.90
21906;DHT22;11117;48.644;9.006;2022-08-19T13:53:29;23.40;93.60
21906;DHT22;11117;48.644;9.006;2022-08-19T13:55:55;23.40;93.90
21906;DHT22;11117;48.644;9.006;2022-08-19T13:58:20;23.40;93.80
21906;DHT22;11117;48.644;9.006;2022-08-19T14:00:47;23.60;93.70
21906;DHT22;11117;48.644;9.006;2022-08-19T14:03:13;23.80;93.60
21906;DHT22;11117;48.644;9.006;2022-08-19T14:05:39;24.00;93.60
21906;DHT22;11117;48.644;9.006;2022-08-19T14:08:05;24.10;93.30
21906;DHT22;11117;48.644;9.006;2022-08-19T14:10:31;24.10;93.40
21906;DHT22;11117;48.644;9.006;2022-08-19T14:12:59;23.80;93.20
21906;DHT22;11117;48.644;9.006;2022-08-19T14:15:25;23.80;93.80
21906;DHT22;11117;48.644;9.006;2022-08-19T14:17:53;23.80;93.50
21906;DHT22;11117;48.644;9.006;2022-08-19T14:20:18;23.80;92.90
21906;DHT22;11117;48.644;9.006;2022-08-19T14:22:46;24.00;93.00
21906;DHT22;11117;48.644;9.006;2022-08-19T14:25:24;23.90;92.80
21906;DHT22;11117;48.644;9.006;2022-08-19T14:27:50;24.10;93.00
21906;DHT22;11117;48.644;9.006;2022-08-19T14:30:19;24.10;92.70
21906;DHT22;11117;48.644;9.006;2022-08-19T14:32:45;24.00;92.70
21906;DHT22;11117;48.644;9.006;2022-08-19T14:35:13;23.90;92.50
21906;DHT22;11117;48.644;9.006;2022-08-19T14:37:39;23.70;92.40
21906;DHT22;11117;48.644;9.006;2022-08-19T14:40:05;23.70;92.70
21906;DHT22;11117;48.644;9.006;2022-08-19T14:42:30;23.50;92.20
21906;DHT22;11117;48.644;9.006;2022-08-19T14:45:00;23.50;92.50
21906;DHT22;11117;48.644;9.006;2022-08-19T14:47:26;23.40;92.10
21906;DHT22;11117;48.644;9.006;2022-08-19T14:49:52;23.50;92.20
21906;DHT22;11117;48.644;9.006;2022-08-19T14:52:20;23.40;92.10
21906;DHT22;11117;48.644;9.006;2022-08-19T14:54:46;23.50;92.20
21906;DHT22;11117;48.644;9.006;2022-08-19T14:57:12;23.60;92.20
21906;DHT22;11117;48.644;9.006;2022-08-19T14:59:38;23.50;91.90
21906;DHT22;11117;48.644;9.006;2022-08-19T15:02:04;23.60;91.80
21906;DHT22;11117;48.644;9.006;2022-08-19T15:04:29;23.60;91.70
21906;DHT22;11117;48.644;9.006;2022-08-19T15:06:55;23.80;91.80
21906;DHT22;11117;48.644;9.006;2022-08-19T15:09:20;23.80;91.40
21906;DHT22;11117;48.644;9.006;2022-08-19T15:11:46;23.80;91.40
21906;DHT22;11117;48.644;9.006;2022-08-19T15:14:12;24.00;91.40
21906;DHT22;11117;48.644;9.006;2022-08-19T15:16:37;23.90;91.20
21906;DHT22;11117;48.644;9.006;2022-08-19T15:19:03;24.00;91.10
21906;DHT22;11117;48.644;9.006;2022-08-19T15:21:29;24.00;91.00
21906;DHT22;11117;48.644;9.006;2022-08-19T15:23:57;24.20;91.00
21906;DHT22;11117;48.644;9.006;2022-08-19T15:26:26;24.40;90.70
21906;DHT22;11117;48.644;9.006;2022-08-19T15:28:52;24.60;90.50
21906;DHT22;11117;48.644;9.006;2022-08-19T15:31:19;24.70;90.30
21906;DHT22;11117;48.644;9.006;2022-08-19T15:33:48;24.70;90.30
21906;DHT22;11117;48.644;9.006;2022-08-19T15:36:13;24.60;90.30